LATI Airport Information

Runway Information
Runway 18 Length 8971 ft width 148 ft
Elevation 109 ft Threshold 0 ft Heading 174
Runway 36 Length 8971 ft Width 148 ft
Elevation 126 ft Threshold 0 ft Heading 354
Airport Frequencies
Type ACC Name ACC Frequency 127.5 MHZ
Type APP Name APP Frequency 133.15 MHZ
Type TWR Name TWR Frequency 122.5 MHZ
Airport Navaids
Type NDB Name Tirana Frequency 290 KHZ
Type VOR-DME Name Tirana Frequency 117700 KHZ
Airport Weather Information & NOTAM
ADDS - METARS form results

(0531 UTC 19 June 2019)
Data provider http://aviationweather.gov/metar/data/
 
METAR text: LATI 190520Z 19003KT CAVOK 23/20 Q1013 NOSIG
Conditions at: LATI (TIRANA , AL) observed 0520 UTC 19 June 2019
Temperature: 23.0°C (73°F)
Dewpoint: 20.0°C (68°F) [RH = 83%]
Pressure (altimeter): 29.91 inches Hg (1013.0 mb)
Winds: from the S (190 degrees) at 3 MPH (3 knots; 1.5 m/s)
Visibility: 6 or more miles (10+ km)
Ceiling: ceiling and visibility are OK
Clouds: unknown
Weather: no significant weather observed at this time

METAR text: LATI 190450Z VRB02KT CAVOK 23/20 Q1013 NOSIG
Conditions at: LATI (TIRANA , AL) observed 0450 UTC 19 June 2019
Temperature: 23.0°C (73°F)
Dewpoint: 20.0°C (68°F) [RH = 83%]
Pressure (altimeter): 29.91 inches Hg (1013.0 mb)
Winds: variable direction winds at 2 MPH (2 knots; 1.0 m/s)
Visibility: 6 or more miles (10+ km)
Ceiling: ceiling and visibility are OK
Clouds: unknown
Weather: no significant weather observed at this time

Forecast for: LATI (TIRANA , AL)
Text: TAF LATI 190500Z 1906/2006 VRB03KT CAVOK
Forecast period: 0600 UTC 19 June 2019 to 0600 UTC 20 June 2019
Forecast type: FROM: standard forecast or significant change
Winds: variable direction winds at 3 MPH (3 knots; 1.5 m/s)
Visibility: 6 or more miles 10+ km)
Ceiling: unknown
Clouds: missing
Weather: NSW  (no significant weather)
Text: TEMPO 1910/1917 30012KT SCT040CB
Forecast period: 1000 to 1700 UTC 19 June 2019
Forecast type: TEMPORARY: The following changes expected for less than half the time period
Winds: from the WNW (300 degrees) at 14 MPH (12 knots; 6.2 m/s)
Visibility: missing
Ceiling: at least 12,000 feet AGL
Clouds: scattered clouds at 4000 feet AGL
Weather: no significant weather forecast for this period